sensor_id;sensor_type;location;lat;lon;timestamp;P1;durP1;ratioP1;P2;durP2;ratioP2
20076;SDS011;12348;42.710;23.378;2023-04-23T00:01:11;6.70;;;4.90;;
20076;SDS011;12348;42.710;23.378;2023-04-23T00:03:41;8.93;;;5.63;;
20076;SDS011;12348;42.710;23.378;2023-04-23T00:06:08;7.27;;;5.23;;
20076;SDS011;12348;42.710;23.378;2023-04-23T00:08:39;10.10;;;6.00;;
20076;SDS011;12348;42.710;23.378;2023-04-23T00:11:06;10.83;;;6.37;;
20076;SDS011;12348;42.710;23.378;2023-04-23T00:13:34;7.60;;;5.37;;
20076;SDS011;12348;42.710;23.378;2023-04-23T00:16:02;8.17;;;5.17;;
20076;SDS011;12348;42.710;23.378;2023-04-23T00:18:29;11.67;;;5.83;;
20076;SDS011;12348;42.710;23.378;2023-04-23T00:20:56;10.77;;;5.57;;
20076;SDS011;12348;42.710;23.378;2023-04-23T00:23:22;10.37;;;5.93;;
20076;SDS011;12348;42.710;23.378;2023-04-23T00:25:51;8.67;;;6.33;;
20076;SDS011;12348;42.710;23.378;2023-04-23T00:28:18;8.30;;;6.17;;
20076;SDS011;12348;42.710;23.378;2023-04-23T00:30:45;8.27;;;6.63;;
20076;SDS011;12348;42.710;23.378;2023-04-23T00:33:11;10.67;;;6.40;;
20076;SDS011;12348;42.710;23.378;2023-04-23T00:35:38;10.73;;;6.73;;
20076;SDS011;12348;42.710;23.378;2023-04-23T00:38:05;10.00;;;6.73;;
20076;SDS011;12348;42.710;23.378;2023-04-23T00:40:32;12.23;;;7.30;;
20076;SDS011;12348;42.710;23.378;2023-04-23T00:43:00;12.73;;;7.27;;
20076;SDS011;12348;42.710;23.378;2023-04-23T00:45:28;15.37;;;7.60;;
20076;SDS011;12348;42.710;23.378;2023-04-23T00:47:55;23.70;;;8.93;;
20076;SDS011;12348;42.710;23.378;2023-04-23T00:50:22;15.77;;;6.90;;
20076;SDS011;12348;42.710;23.378;2023-04-23T00:52:48;14.23;;;7.70;;
20076;SDS011;12348;42.710;23.378;2023-04-23T00:55:15;17.63;;;6.93;;
20076;SDS011;12348;42.710;23.378;2023-04-23T00:57:45;11.27;;;7.67;;
20076;SDS011;12348;42.710;23.378;2023-04-23T01:00:13;17.50;;;9.13;;
20076;SDS011;12348;42.710;23.378;2023-04-23T01:02:40;19.70;;;7.97;;
20076;SDS011;12348;42.710;23.378;2023-04-23T01:05:08;12.87;;;7.83;;
20076;SDS011;12348;42.710;23.378;2023-04-23T01:07:37;11.77;;;8.00;;
20076;SDS011;12348;42.710;23.378;2023-04-23T01:10:04;12.93;;;7.80;;
20076;SDS011;12348;42.710;23.378;2023-04-23T01:12:32;13.23;;;7.20;;
20076;SDS011;12348;42.710;23.378;2023-04-23T01:14:59;14.10;;;8.80;;
20076;SDS011;12348;42.710;23.378;2023-04-23T01:17:29;12.87;;;7.13;;
20076;SDS011;12348;42.710;23.378;2023-04-23T01:19:58;17.20;;;9.07;;
20076;SDS011;12348;42.710;23.378;2023-04-23T01:22:26;11.40;;;8.30;;
20076;SDS011;12348;42.710;23.378;2023-04-23T01:24:53;16.93;;;8.23;;
20076;SDS011;12348;42.710;23.378;2023-04-23T01:27:20;12.57;;;8.57;;
20076;SDS011;12348;42.710;23.378;2023-04-23T01:29:49;14.37;;;9.27;;
20076;SDS011;12348;42.710;23.378;2023-04-23T01:32:15;16.43;;;9.70;;
20076;SDS011;12348;42.710;23.378;2023-04-23T01:34:43;18.83;;;10.17;;
20076;SDS011;12348;42.710;23.378;2023-04-23T01:37:12;14.70;;;9.40;;
20076;SDS011;12348;42.710;23.378;2023-04-23T01:39:42;16.27;;;10.33;;
20076;SDS011;12348;42.710;23.378;2023-04-23T01:42:09;16.67;;;10.53;;
20076;SDS011;12348;42.710;23.378;2023-04-23T01:44:36;21.23;;;11.03;;
20076;SDS011;12348;42.710;23.378;2023-04-23T01:47:02;24.03;;;12.97;;
20076;SDS011;12348;42.710;23.378;2023-04-23T01:49:30;27.70;;;15.50;;
20076;SDS011;12348;42.710;23.378;2023-04-23T01:51:57;26.70;;;14.93;;
20076;SDS011;12348;42.710;23.378;2023-04-23T01:54:23;26.73;;;15.27;;
20076;SDS011;12348;42.710;23.378;2023-04-23T01:56:52;35.30;;;17.13;;
20076;SDS011;12348;42.710;23.378;2023-04-23T01:59:19;25.63;;;15.47;;
20076;SDS011;12348;42.710;23.378;2023-04-23T02:01:47;29.30;;;15.60;;
20076;SDS011;12348;42.710;23.378;2023-04-23T02:04:15;27.90;;;15.33;;
20076;SDS011;12348;42.710;23.378;2023-04-23T02:06:43;23.60;;;14.83;;
20076;SDS011;12348;42.710;23.378;2023-04-23T02:09:12;23.37;;;13.07;;
20076;SDS011;12348;42.710;23.378;2023-04-23T02:11:39;25.40;;;12.43;;
20076;SDS011;12348;42.710;23.378;2023-04-23T02:14:08;26.77;;;12.87;;
20076;SDS011;12348;42.710;23.378;2023-04-23T02:16:35;24.33;;;11.37;;
20076;SDS011;12348;42.710;23.378;2023-04-23T02:19:02;18.73;;;10.93;;
20076;SDS011;12348;42.710;23.378;2023-04-23T02:21:29;19.33;;;10.50;;
20076;SDS011;12348;42.710;23.378;2023-04-23T02:23:56;18.50;;;10.30;;
20076;SDS011;12348;42.710;23.378;2023-04-23T02:26:23;15.77;;;9.77;;
20076;SDS011;12348;42.710;23.378;2023-04-23T02:28:50;20.07;;;9.77;;
20076;SDS011;12348;42.710;23.378;2023-04-23T02:31:18;17.30;;;10.60;;
20076;SDS011;12348;42.710;23.378;2023-04-23T02:33:45;18.77;;;9.37;;
20076;SDS011;12348;42.710;23.378;2023-04-23T02:36:12;15.97;;;8.27;;
20076;SDS011;12348;42.710;23.378;2023-04-23T02:38:40;13.97;;;9.13;;
20076;SDS011;12348;42.710;23.378;2023-04-23T02:41:08;12.83;;;8.83;;
20076;SDS011;12348;42.710;23.378;2023-04-23T02:43:35;18.27;;;10.47;;
20076;SDS011;12348;42.710;23.378;2023-04-23T02:46:02;19.17;;;10.00;;
20076;SDS011;12348;42.710;23.378;2023-04-23T02:48:35;15.27;;;8.57;;
20076;SDS011;12348;42.710;23.378;2023-04-23T02:51:03;14.90;;;10.10;;
20076;SDS011;12348;42.710;23.378;2023-04-23T02:53:31;13.97;;;9.37;;
20076;SDS011;12348;42.710;23.378;2023-04-23T02:55:58;20.10;;;9.87;;
20076;SDS011;12348;42.710;23.378;2023-04-23T02:58:25;14.90;;;8.77;;
20076;SDS011;12348;42.710;23.378;2023-04-23T03:00:52;15.83;;;8.20;;
20076;SDS011;12348;42.710;23.378;2023-04-23T03:03:19;12.73;;;8.67;;
20076;SDS011;12348;42.710;23.378;2023-04-23T03:05:51;13.77;;;8.93;;
20076;SDS011;12348;42.710;23.378;2023-04-23T03:08:19;16.00;;;9.13;;
20076;SDS011;12348;42.710;23.378;2023-04-23T03:10:46;16.97;;;9.20;;
20076;SDS011;12348;42.710;23.378;2023-04-23T03:13:13;16.90;;;8.90;;
20076;SDS011;12348;42.710;23.378;2023-04-23T03:15:40;13.37;;;8.57;;
20076;SDS011;12348;42.710;23.378;2023-04-23T03:18:07;20.20;;;9.27;;
20076;SDS011;12348;42.710;23.378;2023-04-23T03:20:34;16.57;;;9.47;;
20076;SDS011;12348;42.710;23.378;2023-04-23T03:23:03;13.30;;;8.50;;
20076;SDS011;12348;42.710;23.378;2023-04-23T03:25:30;13.07;;;8.13;;
20076;SDS011;12348;42.710;23.378;2023-04-23T03:27:57;15.67;;;8.60;;
20076;SDS011;12348;42.710;23.378;2023-04-23T03:30:24;13.63;;;8.07;;
20076;SDS011;12348;42.710;23.378;2023-04-23T03:32:51;18.17;;;7.77;;
20076;SDS011;12348;42.710;23.378;2023-04-23T03:35:20;12.90;;;8.27;;
20076;SDS011;12348;42.710;23.378;2023-04-23T03:37:47;10.77;;;7.43;;
20076;SDS011;12348;42.710;23.378;2023-04-23T03:40:15;12.80;;;8.27;;
20076;SDS011;12348;42.710;23.378;2023-04-23T03:42:42;13.50;;;8.47;;
20076;SDS011;12348;42.710;23.378;2023-04-23T03:45:09;14.77;;;8.07;;
20076;SDS011;12348;42.710;23.378;2023-04-23T03:47:37;13.90;;;7.90;;
20076;SDS011;12348;42.710;23.378;2023-04-23T03:50:04;18.03;;;8.63;;
20076;SDS011;12348;42.710;23.378;2023-04-23T03:52:33;13.90;;;8.83;;
20076;SDS011;12348;42.710;23.378;2023-04-23T03:55:00;13.70;;;8.77;;
20076;SDS011;12348;42.710;23.378;2023-04-23T03:57:28;13.70;;;8.23;;
20076;SDS011;12348;42.710;23.378;2023-04-23T03:59:55;16.97;;;9.33;;
20076;SDS011;12348;42.710;23.378;2023-04-23T04:02:21;16.83;;;8.97;;
20076;SDS011;12348;42.710;23.378;2023-04-23T04:04:48;16.33;;;10.40;;
20076;SDS011;12348;42.710;23.378;2023-04-23T04:07:15;14.63;;;8.87;;
20076;SDS011;12348;42.710;23.378;2023-04-23T04:09:42;12.77;;;8.00;;
20076;SDS011;12348;42.710;23.378;2023-04-23T04:12:11;15.83;;;9.00;;
20076;SDS011;12348;42.710;23.378;2023-04-23T04:14:39;11.93;;;8.70;;
20076;SDS011;12348;42.710;23.378;2023-04-23T04:17:06;11.57;;;8.40;;
20076;SDS011;12348;42.710;23.378;2023-04-23T04:19:33;11.40;;;8.20;;
20076;SDS011;12348;42.710;23.378;2023-04-23T04:22:00;11.93;;;8.30;;
20076;SDS011;12348;42.710;23.378;2023-04-23T04:24:28;11.97;;;7.57;;
20076;SDS011;12348;42.710;23.378;2023-04-23T04:26:56;17.27;;;6.93;;
20076;SDS011;12348;42.710;23.378;2023-04-23T04:29:24;14.20;;;7.17;;
20076;SDS011;12348;42.710;23.378;2023-04-23T04:31:52;17.93;;;7.33;;
20076;SDS011;12348;42.710;23.378;2023-04-23T04:34:20;12.53;;;6.17;;
20076;SDS011;12348;42.710;23.378;2023-04-23T04:36:47;13.03;;;6.33;;
20076;SDS011;12348;42.710;23.378;2023-04-23T04:39:15;7.53;;;5.57;;
20076;SDS011;12348;42.710;23.378;2023-04-23T04:41:43;9.63;;;5.87;;
20076;SDS011;12348;42.710;23.378;2023-04-23T04:44:10;11.63;;;5.83;;
20076;SDS011;12348;42.710;23.378;2023-04-23T04:46:38;6.37;;;5.17;;
20076;SDS011;12348;42.710;23.378;2023-04-23T04:49:08;10.03;;;5.57;;
20076;SDS011;12348;42.710;23.378;2023-04-23T04:51:36;5.87;;;4.53;;
20076;SDS011;12348;42.710;23.378;2023-04-23T04:54:03;10.20;;;4.33;;
20076;SDS011;12348;42.710;23.378;2023-04-23T04:56:31;7.40;;;5.00;;
20076;SDS011;12348;42.710;23.378;2023-04-23T04:58:58;8.20;;;5.40;;
20076;SDS011;12348;42.710;23.378;2023-04-23T05:01:25;9.40;;;6.20;;
20076;SDS011;12348;42.710;23.378;2023-04-23T05:03:52;13.83;;;6.23;;
20076;SDS011;12348;42.710;23.378;2023-04-23T05:06:21;11.67;;;5.33;;
20076;SDS011;12348;42.710;23.378;2023-04-23T05:08:48;14.73;;;6.33;;
20076;SDS011;12348;42.710;23.378;2023-04-23T05:11:15;17.67;;;10.23;;
20076;SDS011;12348;42.710;23.378;2023-04-23T05:13:42;13.40;;;8.17;;
20076;SDS011;12348;42.710;23.378;2023-04-23T05:16:09;12.17;;;7.93;;
20076;SDS011;12348;42.710;23.378;2023-04-23T05:18:36;11.53;;;6.33;;
20076;SDS011;12348;42.710;23.378;2023-04-23T05:21:03;16.83;;;11.23;;
20076;SDS011;12348;42.710;23.378;2023-04-23T05:23:31;12.57;;;7.40;;
20076;SDS011;12348;42.710;23.378;2023-04-23T05:25:58;16.50;;;7.60;;
20076;SDS011;12348;42.710;23.378;2023-04-23T05:28:27;12.33;;;7.27;;
20076;SDS011;12348;42.710;23.378;2023-04-23T05:30:55;15.23;;;7.43;;
20076;SDS011;12348;42.710;23.378;2023-04-23T05:33:22;11.73;;;6.33;;
20076;SDS011;12348;42.710;23.378;2023-04-23T05:35:50;7.17;;;4.83;;
20076;SDS011;12348;42.710;23.378;2023-04-23T05:38:16;6.40;;;4.80;;
20076;SDS011;12348;42.710;23.378;2023-04-23T05:40:44;8.93;;;4.80;;
20076;SDS011;12348;42.710;23.378;2023-04-23T05:43:11;6.60;;;4.67;;
20076;SDS011;12348;42.710;23.378;2023-04-23T05:45:38;8.07;;;5.00;;
20076;SDS011;12348;42.710;23.378;2023-04-23T05:48:05;6.53;;;4.73;;
20076;SDS011;12348;42.710;23.378;2023-04-23T05:50:32;5.93;;;4.27;;
20076;SDS011;12348;42.710;23.378;2023-04-23T05:52:58;4.87;;;3.70;;
20076;SDS011;12348;42.710;23.378;2023-04-23T05:55:25;5.30;;;4.00;;
20076;SDS011;12348;42.710;23.378;2023-04-23T05:57:53;10.47;;;4.10;;
20076;SDS011;12348;42.710;23.378;2023-04-23T06:00:20;7.00;;;4.23;;
20076;SDS011;12348;42.710;23.378;2023-04-23T06:02:47;5.57;;;4.30;;
20076;SDS011;12348;42.710;23.378;2023-04-23T06:05:14;6.20;;;4.10;;
20076;SDS011;12348;42.710;23.378;2023-04-23T06:07:40;4.77;;;3.83;;
20076;SDS011;12348;42.710;23.378;2023-04-23T06:10:07;14.63;;;6.73;;
20076;SDS011;12348;42.710;23.378;2023-04-23T06:12:36;8.87;;;6.63;;
20076;SDS011;12348;42.710;23.378;2023-04-23T06:15:06;20.97;;;13.03;;
20076;SDS011;12348;42.710;23.378;2023-04-23T06:17:34;6.97;;;5.20;;
20076;SDS011;12348;42.710;23.378;2023-04-23T06:20:01;10.67;;;6.20;;
20076;SDS011;12348;42.710;23.378;2023-04-23T06:22:29;8.23;;;5.17;;
20076;SDS011;12348;42.710;23.378;2023-04-23T06:24:55;9.53;;;5.00;;
20076;SDS011;12348;42.710;23.378;2023-04-23T06:27:22;6.37;;;5.13;;
20076;SDS011;12348;42.710;23.378;2023-04-23T06:29:49;8.13;;;4.63;;
20076;SDS011;12348;42.710;23.378;2023-04-23T06:32:17;7.30;;;4.60;;
20076;SDS011;12348;42.710;23.378;2023-04-23T06:34:44;6.63;;;4.97;;
20076;SDS011;12348;42.710;23.378;2023-04-23T06:37:11;8.03;;;5.13;;
20076;SDS011;12348;42.710;23.378;2023-04-23T06:39:38;6.47;;;3.70;;
20076;SDS011;12348;42.710;23.378;2023-04-23T06:42:04;8.80;;;4.30;;
20076;SDS011;12348;42.710;23.378;2023-04-23T06:44:31;9.27;;;3.73;;
20076;SDS011;12348;42.710;23.378;2023-04-23T06:46:58;11.10;;;4.30;;
20076;SDS011;12348;42.710;23.378;2023-04-23T06:49:27;5.83;;;4.40;;
20076;SDS011;12348;42.710;23.378;2023-04-23T06:51:53;4.87;;;3.63;;
20076;SDS011;12348;42.710;23.378;2023-04-23T06:54:20;4.43;;;3.63;;
20076;SDS011;12348;42.710;23.378;2023-04-23T06:56:47;8.17;;;4.67;;
20076;SDS011;12348;42.710;23.378;2023-04-23T06:59:15;4.57;;;3.33;;
20076;SDS011;12348;42.710;23.378;2023-04-23T07:01:41;7.97;;;4.17;;
20076;SDS011;12348;42.710;23.378;2023-04-23T07:04:08;7.10;;;3.80;;
20076;SDS011;12348;42.710;23.378;2023-04-23T07:06:36;7.83;;;3.70;;
20076;SDS011;12348;42.710;23.378;2023-04-23T07:09:03;6.60;;;4.20;;
20076;SDS011;12348;42.710;23.378;2023-04-23T07:11:30;6.50;;;4.17;;
20076;SDS011;12348;42.710;23.378;2023-04-23T07:13:58;6.97;;;3.77;;
20076;SDS011;12348;42.710;23.378;2023-04-23T07:16:25;8.37;;;4.10;;
20076;SDS011;12348;42.710;23.378;2023-04-23T07:18:56;9.10;;;4.23;;
20076;SDS011;12348;42.710;23.378;2023-04-23T07:21:22;5.87;;;4.50;;
20076;SDS011;12348;42.710;23.378;2023-04-23T07:23:53;9.37;;;5.07;;
20076;SDS011;12348;42.710;23.378;2023-04-23T07:26:20;7.63;;;5.20;;
20076;SDS011;12348;42.710;23.378;2023-04-23T07:28:47;10.47;;;6.73;;
20076;SDS011;12348;42.710;23.378;2023-04-23T07:31:14;7.07;;;5.40;;
20076;SDS011;12348;42.710;23.378;2023-04-23T07:33:41;7.60;;;4.57;;
20076;SDS011;12348;42.710;23.378;2023-04-23T07:36:08;11.63;;;7.30;;
20076;SDS011;12348;42.710;23.378;2023-04-23T07:38:35;10.40;;;7.00;;
20076;SDS011;12348;42.710;23.378;2023-04-23T07:41:03;13.73;;;8.17;;
20076;SDS011;12348;42.710;23.378;2023-04-23T07:43:30;5.00;;;4.17;;
20076;SDS011;12348;42.710;23.378;2023-04-23T07:45:57;7.87;;;5.77;;
20076;SDS011;12348;42.710;23.378;2023-04-23T07:48:24;7.10;;;5.30;;
20076;SDS011;12348;42.710;23.378;2023-04-23T07:50:50;8.73;;;5.20;;
20076;SDS011;12348;42.710;23.378;2023-04-23T07:53:17;7.70;;;5.53;;
20076;SDS011;12348;42.710;23.378;2023-04-23T07:55:44;6.83;;;5.43;;
20076;SDS011;12348;42.710;23.378;2023-04-23T07:58:12;6.40;;;4.83;;
20076;SDS011;12348;42.710;23.378;2023-04-23T08:00:39;6.97;;;6.07;;
20076;SDS011;12348;42.710;23.378;2023-04-23T08:03:06;6.67;;;5.43;;
20076;SDS011;12348;42.710;23.378;2023-04-23T08:05:32;7.00;;;5.13;;
20076;SDS011;12348;42.710;23.378;2023-04-23T08:08:01;8.83;;;5.47;;
20076;SDS011;12348;42.710;23.378;2023-04-23T08:10:28;8.73;;;6.30;;
20076;SDS011;12348;42.710;23.378;2023-04-23T08:12:54;7.23;;;5.10;;
20076;SDS011;12348;42.710;23.378;2023-04-23T08:15:22;7.80;;;5.03;;
20076;SDS011;12348;42.710;23.378;2023-04-23T08:17:49;9.10;;;5.17;;
20076;SDS011;12348;42.710;23.378;2023-04-23T08:20:16;7.80;;;5.80;;
20076;SDS011;12348;42.710;23.378;2023-04-23T08:22:43;11.10;;;6.17;;
20076;SDS011;12348;42.710;23.378;2023-04-23T08:25:10;10.70;;;5.30;;
20076;SDS011;12348;42.710;23.378;2023-04-23T08:27:37;8.80;;;5.50;;
20076;SDS011;12348;42.710;23.378;2023-04-23T08:30:05;9.77;;;5.20;;
20076;SDS011;12348;42.710;23.378;2023-04-23T08:32:34;6.53;;;4.87;;
20076;SDS011;12348;42.710;23.378;2023-04-23T08:35:00;9.30;;;5.93;;
20076;SDS011;12348;42.710;23.378;2023-04-23T08:37:27;6.13;;;5.23;;
20076;SDS011;12348;42.710;23.378;2023-04-23T08:39:54;8.83;;;5.30;;
20076;SDS011;12348;42.710;23.378;2023-04-23T08:42:22;6.70;;;5.83;;
20076;SDS011;12348;42.710;23.378;2023-04-23T08:44:52;13.83;;;6.47;;
20076;SDS011;12348;42.710;23.378;2023-04-23T08:47:22;15.43;;;6.07;;
20076;SDS011;12348;42.710;23.378;2023-04-23T08:49:52;7.93;;;5.70;;
20076;SDS011;12348;42.710;23.378;2023-04-23T08:52:21;8.20;;;4.73;;
20076;SDS011;12348;42.710;23.378;2023-04-23T08:54:51;7.83;;;4.87;;
20076;SDS011;12348;42.710;23.378;2023-04-23T08:57:19;7.87;;;5.47;;
20076;SDS011;12348;42.710;23.378;2023-04-23T08:59:46;9.67;;;4.87;;
20076;SDS011;12348;42.710;23.378;2023-04-23T09:02:12;6.00;;;4.60;;
20076;SDS011;12348;42.710;23.378;2023-04-23T09:04:40;7.57;;;5.47;;
20076;SDS011;12348;42.710;23.378;2023-04-23T09:07:08;7.97;;;5.80;;
20076;SDS011;12348;42.710;23.378;2023-04-23T09:09:36;7.93;;;4.80;;
20076;SDS011;12348;42.710;23.378;2023-04-23T09:12:04;8.00;;;5.00;;
20076;SDS011;12348;42.710;23.378;2023-04-23T09:14:32;11.07;;;4.83;;
20076;SDS011;12348;42.710;23.378;2023-04-23T09:16:59;7.20;;;5.40;;
20076;SDS011;12348;42.710;23.378;2023-04-23T09:19:27;6.83;;;4.87;;
20076;SDS011;12348;42.710;23.378;2023-04-23T09:21:54;8.07;;;5.43;;
20076;SDS011;12348;42.710;23.378;2023-04-23T09:24:24;6.97;;;4.77;;
20076;SDS011;12348;42.710;23.378;2023-04-23T09:26:51;9.10;;;5.70;;
20076;SDS011;12348;42.710;23.378;2023-04-23T09:29:19;6.17;;;4.30;;
20076;SDS011;12348;42.710;23.378;2023-04-23T09:31:48;7.00;;;5.00;;
20076;SDS011;12348;42.710;23.378;2023-04-23T09:34:18;8.67;;;5.60;;
20076;SDS011;12348;42.710;23.378;2023-04-23T09:36:46;9.27;;;4.90;;
20076;SDS011;12348;42.710;23.378;2023-04-23T09:39:15;6.13;;;4.50;;
20076;SDS011;12348;42.710;23.378;2023-04-23T09:41:44;4.33;;;3.63;;
20076;SDS011;12348;42.710;23.378;2023-04-23T09:44:11;10.87;;;5.13;;
20076;SDS011;12348;42.710;23.378;2023-04-23T09:46:42;8.63;;;4.30;;
20076;SDS011;12348;42.710;23.378;2023-04-23T09:49:10;6.30;;;3.93;;
20076;SDS011;12348;42.710;23.378;2023-04-23T09:51:39;6.43;;;3.40;;
20076;SDS011;12348;42.710;23.378;2023-04-23T09:54:11;5.70;;;4.00;;
20076;SDS011;12348;42.710;23.378;2023-04-23T09:56:39;11.80;;;6.80;;
20076;SDS011;12348;42.710;23.378;2023-04-23T09:59:19;16.10;;;8.70;;
20076;SDS011;12348;42.710;23.378;2023-04-23T10:01:47;8.40;;;4.70;;
20076;SDS011;12348;42.710;23.378;2023-04-23T10:04:16;4.10;;;3.70;;
20076;SDS011;12348;42.710;23.378;2023-04-23T10:06:45;8.17;;;4.83;;
20076;SDS011;12348;42.710;23.378;2023-04-23T10:09:11;11.90;;;6.53;;
20076;SDS011;12348;42.710;23.378;2023-04-23T10:11:39;6.57;;;4.03;;
20076;SDS011;12348;42.710;23.378;2023-04-23T10:14:07;8.30;;;4.20;;
20076;SDS011;12348;42.710;23.378;2023-04-23T10:16:36;5.67;;;3.80;;
20076;SDS011;12348;42.710;23.378;2023-04-23T10:19:05;11.17;;;5.57;;
20076;SDS011;12348;42.710;23.378;2023-04-23T10:21:35;3.87;;;3.33;;
20076;SDS011;12348;42.710;23.378;2023-04-23T10:24:03;8.63;;;4.57;;
20076;SDS011;12348;42.710;23.378;2023-04-23T10:26:32;11.83;;;7.83;;
20076;SDS011;12348;42.710;23.378;2023-04-23T10:29:03;9.50;;;4.63;;
20076;SDS011;12348;42.710;23.378;2023-04-23T10:31:35;4.90;;;3.70;;
20076;SDS011;12348;42.710;23.378;2023-04-23T10:34:03;14.00;;;4.93;;
20076;SDS011;12348;42.710;23.378;2023-04-23T10:36:32;7.57;;;4.20;;
20076;SDS011;12348;42.710;23.378;2023-04-23T10:38:59;4.97;;;4.10;;
20076;SDS011;12348;42.710;23.378;2023-04-23T10:41:32;6.97;;;4.47;;
20076;SDS011;12348;42.710;23.378;2023-04-23T10:44:01;7.13;;;4.80;;
20076;SDS011;12348;42.710;23.378;2023-04-23T10:46:29;8.10;;;3.83;;
20076;SDS011;12348;42.710;23.378;2023-04-23T10:49:09;7.23;;;4.13;;
20076;SDS011;12348;42.710;23.378;2023-04-23T10:51:39;8.23;;;4.50;;
20076;SDS011;12348;42.710;23.378;2023-04-23T10:54:06;6.50;;;3.70;;
20076;SDS011;12348;42.710;23.378;2023-04-23T10:56:34;5.20;;;3.90;;
20076;SDS011;12348;42.710;23.378;2023-04-23T10:59:04;12.03;;;5.17;;
20076;SDS011;12348;42.710;23.378;2023-04-23T11:01:32;8.23;;;5.63;;
20076;SDS011;12348;42.710;23.378;2023-04-23T11:04:04;5.33;;;3.50;;
20076;SDS011;12348;42.710;23.378;2023-04-23T11:06:50;9.53;;;4.07;;
20076;SDS011;12348;42.710;23.378;2023-04-23T11:09:35;9.33;;;4.60;;
20076;SDS011;12348;42.710;23.378;2023-04-23T11:12:05;3.80;;;3.30;;
20076;SDS011;12348;42.710;23.378;2023-04-23T11:14:35;4.67;;;3.80;;
20076;SDS011;12348;42.710;23.378;2023-04-23T11:17:03;4.27;;;3.47;;
20076;SDS011;12348;42.710;23.378;2023-04-23T11:19:35;10.67;;;6.60;;
20076;SDS011;12348;42.710;23.378;2023-04-23T11:22:03;10.73;;;6.03;;
20076;SDS011;12348;42.710;23.378;2023-04-23T11:24:33;9.73;;;4.40;;
20076;SDS011;12348;42.710;23.378;2023-04-23T11:27:05;7.40;;;4.13;;
20076;SDS011;12348;42.710;23.378;2023-04-23T11:29:35;6.33;;;3.40;;
20076;SDS011;12348;42.710;23.378;2023-04-23T11:32:02;6.03;;;3.90;;
20076;SDS011;12348;42.710;23.378;2023-04-23T11:34:35;10.50;;;5.83;;
20076;SDS011;12348;42.710;23.378;2023-04-23T11:37:04;7.27;;;5.43;;
20076;SDS011;12348;42.710;23.378;2023-04-23T11:39:31;5.80;;;4.80;;
20076;SDS011;12348;42.710;23.378;2023-04-23T11:41:57;4.20;;;3.57;;
20076;SDS011;12348;42.710;23.378;2023-04-23T11:44:27;5.43;;;3.20;;
20076;SDS011;12348;42.710;23.378;2023-04-23T11:46:54;4.93;;;3.47;;
20076;SDS011;12348;42.710;23.378;2023-04-23T11:49:25;7.00;;;4.40;;
20076;SDS011;12348;42.710;23.378;2023-04-23T11:51:53;8.20;;;4.63;;
20076;SDS011;12348;42.710;23.378;2023-04-23T11:54:23;8.33;;;5.27;;
20076;SDS011;12348;42.710;23.378;2023-04-23T11:56:52;7.83;;;4.47;;
20076;SDS011;12348;42.710;23.378;2023-04-23T11:59:19;8.77;;;4.60;;
20076;SDS011;12348;42.710;23.378;2023-04-23T12:01:47;4.90;;;3.70;;
20076;SDS011;12348;42.710;23.378;2023-04-23T12:04:17;8.77;;;4.43;;
20076;SDS011;12348;42.710;23.378;2023-04-23T12:06:45;5.03;;;3.40;;
20076;SDS011;12348;42.710;23.378;2023-04-23T12:09:15;9.63;;;3.37;;
20076;SDS011;12348;42.710;23.378;2023-04-23T12:11:43;3.77;;;3.10;;
20076;SDS011;12348;42.710;23.378;2023-04-23T12:14:11;5.87;;;3.70;;
20076;SDS011;12348;42.710;23.378;2023-04-23T12:16:39;6.83;;;3.60;;
20076;SDS011;12348;42.710;23.378;2023-04-23T12:19:08;22.50;;;9.63;;
20076;SDS011;12348;42.710;23.378;2023-04-23T12:21:47;17.23;;;7.63;;
20076;SDS011;12348;42.710;23.378;2023-04-23T12:24:17;15.00;;;5.40;;
20076;SDS011;12348;42.710;23.378;2023-04-23T12:26:43;29.07;;;13.40;;
20076;SDS011;12348;42.710;23.378;2023-04-23T12:29:11;18.60;;;8.13;;
20076;SDS011;12348;42.710;23.378;2023-04-23T12:31:39;16.47;;;8.43;;
20076;SDS011;12348;42.710;23.378;2023-04-23T12:34:08;12.73;;;7.17;;
20076;SDS011;12348;42.710;23.378;2023-04-23T12:36:35;19.03;;;8.67;;
20076;SDS011;12348;42.710;23.378;2023-04-23T12:39:20;47.03;;;18.20;;
20076;SDS011;12348;42.710;23.378;2023-04-23T12:41:49;130.93;;;48.17;;
20076;SDS011;12348;42.710;23.378;2023-04-23T12:44:17;29.03;;;15.93;;
20076;SDS011;12348;42.710;23.378;2023-04-23T12:46:44;12.10;;;6.37;;
20076;SDS011;12348;42.710;23.378;2023-04-23T12:49:11;12.87;;;6.97;;
20076;SDS011;12348;42.710;23.378;2023-04-23T12:51:37;5.07;;;3.27;;
20076;SDS011;12348;42.710;23.378;2023-04-23T12:54:04;5.17;;;4.33;;
20076;SDS011;12348;42.710;23.378;2023-04-23T12:56:32;3.83;;;3.23;;
20076;SDS011;12348;42.710;23.378;2023-04-23T12:59:00;6.03;;;4.00;;
20076;SDS011;12348;42.710;23.378;2023-04-23T13:01:29;5.77;;;3.67;;
20076;SDS011;12348;42.710;23.378;2023-04-23T13:03:56;5.43;;;3.23;;
20076;SDS011;12348;42.710;23.378;2023-04-23T13:06:22;7.20;;;2.90;;
20076;SDS011;12348;42.710;23.378;2023-04-23T13:08:50;7.17;;;2.87;;
20076;SDS011;12348;42.710;23.378;2023-04-23T13:11:18;4.30;;;2.87;;
20076;SDS011;12348;42.710;23.378;2023-04-23T13:13:46;5.33;;;3.10;;
20076;SDS011;12348;42.710;23.378;2023-04-23T13:16:13;4.60;;;2.90;;
20076;SDS011;12348;42.710;23.378;2023-04-23T13:18:40;6.57;;;3.00;;
20076;SDS011;12348;42.710;23.378;2023-04-23T13:21:06;3.53;;;2.73;;
20076;SDS011;12348;42.710;23.378;2023-04-23T13:23:34;4.17;;;2.50;;
20076;SDS011;12348;42.710;23.378;2023-04-23T13:26:02;3.90;;;2.40;;
20076;SDS011;12348;42.710;23.378;2023-04-23T13:28:30;4.17;;;2.87;;
20076;SDS011;12348;42.710;23.378;2023-04-23T13:30:58;4.07;;;2.43;;
20076;SDS011;12348;42.710;23.378;2023-04-23T13:33:25;3.40;;;2.23;;
20076;SDS011;12348;42.710;23.378;2023-04-23T13:35:52;2.97;;;2.60;;
20076;SDS011;12348;42.710;23.378;2023-04-23T13:38:20;5.43;;;2.70;;
20076;SDS011;12348;42.710;23.378;2023-04-23T13:40:48;3.43;;;2.87;;
20076;SDS011;12348;42.710;23.378;2023-04-23T13:43:14;2.53;;;2.33;;
20076;SDS011;12348;42.710;23.378;2023-04-23T13:45:41;3.97;;;2.40;;
20076;SDS011;12348;42.710;23.378;2023-04-23T13:48:10;4.40;;;2.40;;
20076;SDS011;12348;42.710;23.378;2023-04-23T13:50:37;3.93;;;2.63;;
20076;SDS011;12348;42.710;23.378;2023-04-23T13:53:04;5.27;;;2.57;;
20076;SDS011;12348;42.710;23.378;2023-04-23T13:55:30;6.10;;;2.70;;
20076;SDS011;12348;42.710;23.378;2023-04-23T13:57:57;5.57;;;2.87;;
20076;SDS011;12348;42.710;23.378;2023-04-23T14:00:26;4.93;;;2.90;;
20076;SDS011;12348;42.710;23.378;2023-04-23T14:02:53;4.23;;;2.70;;
20076;SDS011;12348;42.710;23.378;2023-04-23T14:05:22;4.23;;;2.70;;
20076;SDS011;12348;42.710;23.378;2023-04-23T14:07:49;5.27;;;2.47;;
20076;SDS011;12348;42.710;23.378;2023-04-23T14:10:16;8.37;;;3.50;;
20076;SDS011;12348;42.710;23.378;2023-04-23T14:12:43;6.87;;;4.07;;
20076;SDS011;12348;42.710;23.378;2023-04-23T14:15:10;13.63;;;4.57;;
20076;SDS011;12348;42.710;23.378;2023-04-23T14:17:37;4.87;;;3.27;;
20076;SDS011;12348;42.710;23.378;2023-04-23T14:20:05;3.23;;;2.87;;
20076;SDS011;12348;42.710;23.378;2023-04-23T14:22:33;7.47;;;3.30;;
20076;SDS011;12348;42.710;23.378;2023-04-23T14:25:01;6.10;;;3.40;;
20076;SDS011;12348;42.710;23.378;2023-04-23T14:27:31;6.23;;;3.77;;
20076;SDS011;12348;42.710;23.378;2023-04-23T14:30:01;2.50;;;2.30;;
20076;SDS011;12348;42.710;23.378;2023-04-23T14:32:30;5.80;;;4.20;;